sensor_id;sensor_type;location;lat;lon;timestamp;pressure;altitude;pressure_sealevel;temperature;humidity
46015;BME280;36844;51.898;-0.874;2023-02-02T00:00:03;101399.03;;;18.28;
46015;BME280;36844;51.898;-0.874;2023-02-02T00:02:28;101395.88;;;18.26;
46015;BME280;36844;51.898;-0.874;2023-02-02T00:04:54;101393.56;;;18.24;
46015;BME280;36844;51.898;-0.874;2023-02-02T00:07:19;101397.78;;;18.22;
46015;BME280;36844;51.898;-0.874;2023-02-02T00:09:44;101392.81;;;18.20;
46015;BME280;36844;51.898;-0.874;2023-02-02T00:12:09;101396.63;;;18.19;
46015;BME280;36844;51.898;-0.874;2023-02-02T00:14:35;101394.28;;;18.18;
46015;BME280;36844;51.898;-0.874;2023-02-02T00:17:00;101400.09;;;18.16;
46015;BME280;36844;51.898;-0.874;2023-02-02T00:19:27;101395.03;;;18.15;
46015;BME280;36844;51.898;-0.874;2023-02-02T00:21:54;101393.47;;;18.14;
46015;BME280;36844;51.898;-0.874;2023-02-02T00:24:19;101388.84;;;18.11;
46015;BME280;36844;51.898;-0.874;2023-02-02T00:26:45;101398.09;;;18.10;
46015;BME280;36844;51.898;-0.874;2023-02-02T00:29:13;101384.19;;;18.08;
46015;BME280;36844;51.898;-0.874;2023-02-02T00:31:38;101390.72;;;18.07;
46015;BME280;36844;51.898;-0.874;2023-02-02T00:34:03;101383.38;;;18.04;
46015;BME280;36844;51.898;-0.874;2023-02-02T00:36:28;101393.38;;;18.03;
46015;BME280;36844;51.898;-0.874;2023-02-02T00:38:54;101384.91;;;18.01;
46015;BME280;36844;51.898;-0.874;2023-02-02T00:41:19;101377.97;;;18.00;
46015;BME280;36844;51.898;-0.874;2023-02-02T00:43:44;101378.34;;;17.99;
46015;BME280;36844;51.898;-0.874;2023-02-02T00:46:30;101375.25;;;17.97;
46015;BME280;36844;51.898;-0.874;2023-02-02T00:48:55;101380.63;;;17.97;
46015;BME280;36844;51.898;-0.874;2023-02-02T00:51:20;101373.28;;;17.94;
46015;BME280;36844;51.898;-0.874;2023-02-02T00:53:46;101372.91;;;17.92;
46015;BME280;36844;51.898;-0.874;2023-02-02T00:56:11;101367.84;;;17.90;
46015;BME280;36844;51.898;-0.874;2023-02-02T00:58:36;101373.63;;;17.89;
46015;BME280;36844;51.898;-0.874;2023-02-02T01:01:01;101374.78;;;17.88;
46015;BME280;36844;51.898;-0.874;2023-02-02T01:03:26;101381.69;;;17.85;
46015;BME280;36844;51.898;-0.874;2023-02-02T01:05:52;101375.50;;;17.85;
46015;BME280;36844;51.898;-0.874;2023-02-02T01:08:17;101384.75;;;17.84;
46015;BME280;36844;51.898;-0.874;2023-02-02T01:10:42;101382.44;;;17.82;
46015;BME280;36844;51.898;-0.874;2023-02-02T01:13:07;101373.94;;;17.80;
46015;BME280;36844;51.898;-0.874;2023-02-02T01:15:33;101370.47;;;17.80;
46015;BME280;36844;51.898;-0.874;2023-02-02T01:17:58;101371.22;;;17.77;
46015;BME280;36844;51.898;-0.874;2023-02-02T01:20:23;101369.66;;;17.75;
46015;BME280;36844;51.898;-0.874;2023-02-02T01:22:49;101369.25;;;17.73;
46015;BME280;36844;51.898;-0.874;2023-02-02T01:25:15;101365.34;;;17.71;
46015;BME280;36844;51.898;-0.874;2023-02-02T01:27:41;101363.81;;;17.70;
46015;BME280;36844;51.898;-0.874;2023-02-02T01:30:06;101372.28;;;17.68;
46015;BME280;36844;51.898;-0.874;2023-02-02T01:32:31;101371.50;;;17.68;
46015;BME280;36844;51.898;-0.874;2023-02-02T01:34:57;101382.66;;;17.66;
46015;BME280;36844;51.898;-0.874;2023-02-02T01:37:22;101381.09;;;17.65;
46015;BME280;36844;51.898;-0.874;2023-02-02T01:39:47;101380.66;;;17.63;
46015;BME280;36844;51.898;-0.874;2023-02-02T01:42:13;101379.13;;;17.62;
46015;BME280;36844;51.898;-0.874;2023-02-02T01:47:21;101379.09;;;17.59;
46015;BME280;36844;51.898;-0.874;2023-02-02T01:49:47;101386.44;;;17.58;
46015;BME280;36844;51.898;-0.874;2023-02-02T01:52:12;101384.09;;;17.57;
46015;BME280;36844;51.898;-0.874;2023-02-02T01:54:46;101387.91;;;17.56;
46015;BME280;36844;51.898;-0.874;2023-02-02T01:59:37;101391.00;;;17.54;
46015;BME280;36844;51.898;-0.874;2023-02-02T02:02:03;101397.84;;;17.52;
46015;BME280;36844;51.898;-0.874;2023-02-02T02:04:28;101395.56;;;17.50;
46015;BME280;36844;51.898;-0.874;2023-02-02T02:06:54;101405.56;;;17.50;
46015;BME280;36844;51.898;-0.874;2023-02-02T02:09:19;101408.59;;;17.48;
46015;BME280;36844;51.898;-0.874;2023-02-02T02:11:45;101415.88;;;17.48;
46015;BME280;36844;51.898;-0.874;2023-02-02T02:14:10;101413.59;;;17.46;
46015;BME280;36844;51.898;-0.874;2023-02-02T02:16:59;101411.66;;;17.43;
46015;BME280;36844;51.898;-0.874;2023-02-02T02:22:31;101407.72;;;17.41;
46015;BME280;36844;51.898;-0.874;2023-02-02T02:25:41;101416.22;;;17.39;
46015;BME280;36844;51.898;-0.874;2023-02-02T02:34:08;101411.13;;;17.34;
46015;BME280;36844;51.898;-0.874;2023-02-02T02:39:26;101409.19;;;17.31;
46015;BME280;36844;51.898;-0.874;2023-02-02T02:41:55;101409.19;;;17.31;
46015;BME280;36844;51.898;-0.874;2023-02-02T02:44:21;101410.31;;;17.30;
46015;BME280;36844;51.898;-0.874;2023-02-02T02:46:47;101422.19;;;17.29;
46015;BME280;36844;51.898;-0.874;2023-02-02T02:49:14;101420.69;;;17.28;
46015;BME280;36844;51.898;-0.874;2023-02-02T02:54:11;101418.34;;;17.27;
46015;BME280;36844;51.898;-0.874;2023-02-02T02:59:08;101402.53;;;17.25;
46015;BME280;36844;51.898;-0.874;2023-02-02T03:05:02;101408.31;;;17.24;
46015;BME280;36844;51.898;-0.874;2023-02-02T03:06:57;101407.13;;;17.21;
46015;BME280;36844;51.898;-0.874;2023-02-02T03:09:24;101412.50;;;17.21;
46015;BME280;36844;51.898;-0.874;2023-02-02T03:11:51;101413.66;;;17.20;
46015;BME280;36844;51.898;-0.874;2023-02-02T03:14:16;101412.09;;;17.19;
46015;BME280;36844;51.898;-0.874;2023-02-02T03:16:41;101422.88;;;17.19;
46015;BME280;36844;51.898;-0.874;2023-02-02T03:19:06;101426.69;;;17.18;
46015;BME280;36844;51.898;-0.874;2023-02-02T03:21:32;101422.44;;;17.17;
46015;BME280;36844;51.898;-0.874;2023-02-02T03:23:58;101413.63;;;17.17;
46015;BME280;36844;51.898;-0.874;2023-02-02T03:26:23;101422.03;;;17.15;
46015;BME280;36844;51.898;-0.874;2023-02-02T03:28:49;101420.47;;;17.14;
46015;BME280;36844;51.898;-0.874;2023-02-02T03:31:14;101426.63;;;17.15;
46015;BME280;36844;51.898;-0.874;2023-02-02T03:33:40;101418.19;;;17.13;
46015;BME280;36844;51.898;-0.874;2023-02-02T03:36:05;101422.78;;;17.12;
46015;BME280;36844;51.898;-0.874;2023-02-02T03:38:30;101426.59;;;17.11;
46015;BME280;36844;51.898;-0.874;2023-02-02T03:40:56;101416.94;;;17.10;
46015;BME280;36844;51.898;-0.874;2023-02-02T03:43:21;101412.72;;;17.09;
46015;BME280;36844;51.898;-0.874;2023-02-02T03:45:47;101407.34;;;17.09;
46015;BME280;36844;51.898;-0.874;2023-02-02T03:48:12;101403.91;;;17.09;
46015;BME280;36844;51.898;-0.874;2023-02-02T03:50:37;101393.47;;;17.07;
46015;BME280;36844;51.898;-0.874;2023-02-02T03:53:05;101400.00;;;17.06;
46015;BME280;36844;51.898;-0.874;2023-02-02T03:55:31;101395.00;;;17.05;
46015;BME280;36844;51.898;-0.874;2023-02-02T03:57:56;101391.53;;;17.04;
46015;BME280;36844;51.898;-0.874;2023-02-02T04:00:21;101393.78;;;17.02;
46015;BME280;36844;51.898;-0.874;2023-02-02T04:02:46;101399.94;;;17.03;
46015;BME280;36844;51.898;-0.874;2023-02-02T04:05:12;101396.84;;;17.01;
46015;BME280;36844;51.898;-0.874;2023-02-02T04:07:37;101394.16;;;17.01;
46015;BME280;36844;51.898;-0.874;2023-02-02T04:10:03;101396.06;;;17.00;
46015;BME280;36844;51.898;-0.874;2023-02-02T04:12:28;101397.97;;;17.00;
46015;BME280;36844;51.898;-0.874;2023-02-02T04:14:53;101391.03;;;16.99;
46015;BME280;36844;51.898;-0.874;2023-02-02T04:17:19;101394.13;;;16.97;
46015;BME280;36844;51.898;-0.874;2023-02-02T04:19:44;101398.72;;;16.97;
46015;BME280;36844;51.898;-0.874;2023-02-02T04:22:09;101395.25;;;16.96;
46015;BME280;36844;51.898;-0.874;2023-02-02T04:24:34;101392.94;;;16.95;
46015;BME280;36844;51.898;-0.874;2023-02-02T04:27:00;101392.94;;;16.95;
46015;BME280;36844;51.898;-0.874;2023-02-02T04:29:25;101404.06;;;16.93;
46015;BME280;36844;51.898;-0.874;2023-02-02T04:31:50;101399.47;;;16.94;
46015;BME280;36844;51.898;-0.874;2023-02-02T04:34:15;101402.50;;;16.92;
46015;BME280;36844;51.898;-0.874;2023-02-02T04:36:41;101394.78;;;16.91;
46015;BME280;36844;51.898;-0.874;2023-02-02T04:39:08;101389.41;;;16.91;
46015;BME280;36844;51.898;-0.874;2023-02-02T04:41:34;101395.16;;;16.89;
46015;BME280;36844;51.898;-0.874;2023-02-02T04:43:59;101397.06;;;16.89;
46015;BME280;36844;51.898;-0.874;2023-02-02T04:46:24;101396.28;;;16.88;
46015;BME280;36844;51.898;-0.874;2023-02-02T04:48:50;101394.75;;;16.87;
46015;BME280;36844;51.898;-0.874;2023-02-02T04:51:15;101405.50;;;16.87;
46015;BME280;36844;51.898;-0.874;2023-02-02T04:53:42;101405.88;;;16.86;
46015;BME280;36844;51.898;-0.874;2023-02-02T04:56:09;101410.47;;;16.85;
46015;BME280;36844;51.898;-0.874;2023-02-02T04:58:35;101414.28;;;16.84;
46015;BME280;36844;51.898;-0.874;2023-02-02T05:01:00;101406.22;;;16.84;
46015;BME280;36844;51.898;-0.874;2023-02-02T05:03:31;101405.81;;;16.82;
46015;BME280;36844;51.898;-0.874;2023-02-02T05:06:03;101400.44;;;16.82;
46015;BME280;36844;51.898;-0.874;2023-02-02T05:08:29;101400.78;;;16.80;
46015;BME280;36844;51.898;-0.874;2023-02-02T05:10:54;101383.84;;;16.80;
46015;BME280;36844;51.898;-0.874;2023-02-02T05:13:19;101370.78;;;16.78;
46015;BME280;36844;51.898;-0.874;2023-02-02T05:15:44;101376.16;;;16.78;
46015;BME280;36844;51.898;-0.874;2023-02-02T05:18:09;101377.31;;;16.77;
46015;BME280;36844;51.898;-0.874;2023-02-02T05:20:35;101361.50;;;16.76;
46015;BME280;36844;51.898;-0.874;2023-02-02T05:23:00;101363.44;;;16.75;
46015;BME280;36844;51.898;-0.874;2023-02-02T05:25:25;101376.09;;;16.75;
46015;BME280;36844;51.898;-0.874;2023-02-02T05:27:50;101376.91;;;16.75;
46015;BME280;36844;51.898;-0.874;2023-02-02T05:30:16;101377.25;;;16.74;
46015;BME280;36844;51.898;-0.874;2023-02-02T05:32:41;101378.38;;;16.73;
46015;BME280;36844;51.898;-0.874;2023-02-02T05:35:07;101384.91;;;16.72;
46015;BME280;36844;51.898;-0.874;2023-02-02T05:37:32;101386.81;;;16.71;
46015;BME280;36844;51.898;-0.874;2023-02-02T05:39:57;101379.91;;;16.70;
46015;BME280;36844;51.898;-0.874;2023-02-02T05:42:22;101387.19;;;16.70;
46015;BME280;36844;51.898;-0.874;2023-02-02T05:44:48;101389.09;;;16.69;
46015;BME280;36844;51.898;-0.874;2023-02-02T05:47:13;101382.16;;;16.68;
46015;BME280;36844;51.898;-0.874;2023-02-02T05:49:38;101389.47;;;16.68;
46015;BME280;36844;51.898;-0.874;2023-02-02T05:52:04;101395.22;;;16.66;
46015;BME280;36844;51.898;-0.874;2023-02-02T05:54:29;101390.59;;;16.67;
46015;BME280;36844;51.898;-0.874;2023-02-02T05:56:54;101393.66;;;16.65;
46015;BME280;36844;51.898;-0.874;2023-02-02T05:59:21;101398.25;;;16.65;
46015;BME280;36844;51.898;-0.874;2023-02-02T06:01:46;101394.00;;;16.64;
46015;BME280;36844;51.898;-0.874;2023-02-02T06:04:12;101385.16;;;16.63;
46015;BME280;36844;51.898;-0.874;2023-02-02T06:06:38;101393.22;;;16.63;
46015;BME280;36844;51.898;-0.874;2023-02-02T06:09:04;101393.59;;;16.62;
46015;BME280;36844;51.898;-0.874;2023-02-02T06:11:29;101395.50;;;16.61;
46015;BME280;36844;51.898;-0.874;2023-02-02T06:13:55;101394.72;;;16.61;
46015;BME280;36844;51.898;-0.874;2023-02-02T06:16:20;101394.72;;;16.61;
46015;BME280;36844;51.898;-0.874;2023-02-02T06:18:45;101400.47;;;16.59;
46015;BME280;36844;51.898;-0.874;2023-02-02T06:21:11;101398.94;;;16.58;
46015;BME280;36844;51.898;-0.874;2023-02-02T06:23:36;101408.91;;;16.58;
46015;BME280;36844;51.898;-0.874;2023-02-02T06:26:01;101408.91;;;16.58;
46015;BME280;36844;51.898;-0.874;2023-02-02T06:28:28;101401.94;;;16.57;
46015;BME280;36844;51.898;-0.874;2023-02-02T06:30:53;101400.41;;;16.56;
46015;BME280;36844;51.898;-0.874;2023-02-02T06:33:18;101416.53;;;16.56;
46015;BME280;36844;51.898;-0.874;2023-02-02T06:35:44;101422.28;;;16.54;
46015;BME280;36844;51.898;-0.874;2023-02-02T06:38:09;101422.28;;;16.54;
46015;BME280;36844;51.898;-0.874;2023-02-02T06:40:35;101424.19;;;16.54;
46015;BME280;36844;51.898;-0.874;2023-02-02T06:43:01;101425.31;;;16.53;
46015;BME280;36844;51.898;-0.874;2023-02-02T06:45:27;101435.31;;;16.52;
46015;BME280;36844;51.898;-0.874;2023-02-02T06:47:53;101437.22;;;16.52;
46015;BME280;36844;51.898;-0.874;2023-02-02T06:50:18;101433.00;;;16.51;
46015;BME280;36844;51.898;-0.874;2023-02-02T06:52:50;101421.41;;;16.47;
46015;BME280;36844;51.898;-0.874;2023-02-02T06:55:15;101428.31;;;16.48;
46015;BME280;36844;51.898;-0.874;2023-02-02T06:57:41;101443.31;;;16.49;
46015;BME280;36844;51.898;-0.874;2023-02-02T07:00:06;101438.31;;;16.47;
46015;BME280;36844;51.898;-0.874;2023-02-02T07:02:32;101433.28;;;16.46;
46015;BME280;36844;51.898;-0.874;2023-02-02T07:04:57;101443.69;;;16.47;
46015;BME280;36844;51.898;-0.874;2023-02-02T07:07:22;101437.88;;;16.45;
46015;BME280;36844;51.898;-0.874;2023-02-02T07:09:47;101438.66;;;16.46;
46015;BME280;36844;51.898;-0.874;2023-02-02T07:12:13;101439.81;;;16.45;
46015;BME280;36844;51.898;-0.874;2023-02-02T07:14:38;101442.50;;;16.45;
46015;BME280;36844;51.898;-0.874;2023-02-02T07:17:03;101447.88;;;16.45;
46015;BME280;36844;51.898;-0.874;2023-02-02T07:19:28;101445.94;;;16.45;
46015;BME280;36844;51.898;-0.874;2023-02-02T07:21:53;101450.19;;;16.46;
46015;BME280;36844;51.898;-0.874;2023-02-02T07:24:19;101448.28;;;16.47;
46015;BME280;36844;51.898;-0.874;2023-02-02T07:26:44;101450.97;;;16.47;
46015;BME280;36844;51.898;-0.874;2023-02-02T07:29:12;101456.00;;;16.48;
46015;BME280;36844;51.898;-0.874;2023-02-02T07:31:38;101457.97;;;16.51;
46015;BME280;36844;51.898;-0.874;2023-02-02T07:34:03;101456.47;;;16.54;
46015;BME280;36844;51.898;-0.874;2023-02-02T07:36:29;101456.88;;;16.56;
46015;BME280;36844;51.898;-0.874;2023-02-02T07:38:54;101450.03;;;16.58;
46015;BME280;36844;51.898;-0.874;2023-02-02T07:41:21;101455.81;;;16.60;
46015;BME280;36844;51.898;-0.874;2023-02-02T07:43:47;101456.63;;;16.64;
46015;BME280;36844;51.898;-0.874;2023-02-02T07:46:12;101457.47;;;16.68;
46015;BME280;36844;51.898;-0.874;2023-02-02T07:48:38;101454.84;;;16.72;
46015;BME280;36844;51.898;-0.874;2023-02-02T07:51:06;101460.28;;;16.75;
46015;BME280;36844;51.898;-0.874;2023-02-02T07:53:32;101459.56;;;16.78;
46015;BME280;36844;51.898;-0.874;2023-02-02T07:58:32;101470.84;;;16.88;
46015;BME280;36844;51.898;-0.874;2023-02-02T08:01:01;101473.59;;;16.91;
46015;BME280;36844;51.898;-0.874;2023-02-02T08:03:26;101477.09;;;16.95;
46015;BME280;36844;51.898;-0.874;2023-02-02T08:05:51;101476.81;;;17.00;
46015;BME280;36844;51.898;-0.874;2023-02-02T08:08:17;101486.50;;;17.05;
46015;BME280;36844;51.898;-0.874;2023-02-02T08:10:51;101488.09;;;17.09;
46015;BME280;36844;51.898;-0.874;2023-02-02T08:13:17;101484.69;;;17.12;
46015;BME280;36844;51.898;-0.874;2023-02-02T08:15:42;101484.38;;;17.17;
46015;BME280;36844;51.898;-0.874;2023-02-02T08:18:07;101490.59;;;17.21;
46015;BME280;36844;51.898;-0.874;2023-02-02T08:20:33;101491.38;;;17.25;
46015;BME280;36844;51.898;-0.874;2023-02-02T08:22:58;101485.31;;;17.28;
46015;BME280;36844;51.898;-0.874;2023-02-02T08:25:23;101486.13;;;17.32;
46015;BME280;36844;51.898;-0.874;2023-02-02T08:27:52;101490.00;;;17.35;
46015;BME280;36844;51.898;-0.874;2023-02-02T08:30:17;101486.56;;;17.38;
46015;BME280;36844;51.898;-0.874;2023-02-02T08:32:42;101493.91;;;17.41;
46015;BME280;36844;51.898;-0.874;2023-02-02T08:35:08;101485.50;;;17.42;
46015;BME280;36844;51.898;-0.874;2023-02-02T08:37:33;101479.38;;;17.45;
46015;BME280;36844;51.898;-0.874;2023-02-02T08:39:58;101474.41;;;17.47;
46015;BME280;36844;51.898;-0.874;2023-02-02T08:42:23;101473.25;;;17.48;
46015;BME280;36844;51.898;-0.874;2023-02-02T08:44:49;101481.75;;;17.50;
46015;BME280;36844;51.898;-0.874;2023-02-02T08:47:14;101485.97;;;17.51;
46015;BME280;36844;51.898;-0.874;2023-02-02T08:49:39;101493.69;;;17.53;
46015;BME280;36844;51.898;-0.874;2023-02-02T08:52:06;101485.28;;;17.54;
46015;BME280;36844;51.898;-0.874;2023-02-02T08:54:31;101498.34;;;17.56;
46015;BME280;36844;51.898;-0.874;2023-02-02T08:56:56;101501.81;;;17.56;
46015;BME280;36844;51.898;-0.874;2023-02-02T08:59:22;101513.38;;;17.57;
46015;BME280;36844;51.898;-0.874;2023-02-02T09:01:47;101514.16;;;17.57;
46015;BME280;36844;51.898;-0.874;2023-02-02T09:04:13;101521.13;;;17.58;
46015;BME280;36844;51.898;-0.874;2023-02-02T09:06:42;101524.56;;;17.59;
46015;BME280;36844;51.898;-0.874;2023-02-02T09:09:08;101521.13;;;17.58;
46015;BME280;36844;51.898;-0.874;2023-02-02T09:11:34;101521.13;;;17.58;
46015;BME280;36844;51.898;-0.874;2023-02-02T09:13:59;101523.81;;;17.58;
46015;BME280;36844;51.898;-0.874;2023-02-02T09:16:27;101515.75;;;17.58;
46015;BME280;36844;51.898;-0.874;2023-02-02T09:18:54;101523.03;;;17.58;
46015;BME280;36844;51.898;-0.874;2023-02-02T09:21:19;101521.13;;;17.58;
46015;BME280;36844;51.898;-0.874;2023-02-02T09:23:45;101525.72;;;17.58;
46015;BME280;36844;51.898;-0.874;2023-02-02T09:26:21;101532.25;;;17.57;
46015;BME280;36844;51.898;-0.874;2023-02-02T09:28:51;101528.75;;;17.56;
46015;BME280;36844;51.898;-0.874;2023-02-02T09:31:17;101532.59;;;17.55;
46015;BME280;36844;51.898;-0.874;2023-02-02T09:33:42;101529.13;;;17.55;
46015;BME280;36844;51.898;-0.874;2023-02-02T09:38:36;101529.13;;;17.55;
46015;BME280;36844;51.898;-0.874;2023-02-02T09:41:09;101526.81;;;17.53;
46015;BME280;36844;51.898;-0.874;2023-02-02T09:43:48;101526.03;;;17.53;
46015;BME280;36844;51.898;-0.874;2023-02-02T09:46:20;101524.13;;;17.53;
46015;BME280;36844;51.898;-0.874;2023-02-02T09:49:06;101519.84;;;17.52;
46015;BME280;36844;51.898;-0.874;2023-02-02T09:51:34;101521.75;;;17.52;
46015;BME280;36844;51.898;-0.874;2023-02-02T09:54:13;101520.97;;;17.51;
46015;BME280;36844;51.898;-0.874;2023-02-02T09:56:40;101522.16;;;17.50;
46015;BME280;36844;51.898;-0.874;2023-02-02T09:59:11;101527.56;;;17.50;
46015;BME280;36844;51.898;-0.874;2023-02-02T10:01:39;101535.63;;;17.50;
46015;BME280;36844;51.898;-0.874;2023-02-02T10:04:12;101537.53;;;17.50;
46015;BME280;36844;51.898;-0.874;2023-02-02T10:06:41;101529.81;;;17.48;
46015;BME280;36844;51.898;-0.874;2023-02-02T10:09:14;101534.41;;;17.48;
46015;BME280;36844;51.898;-0.874;2023-02-02T10:11:42;101525.59;;;17.47;
46015;BME280;36844;51.898;-0.874;2023-02-02T10:14:12;101537.50;;;17.46;
46015;BME280;36844;51.898;-0.874;2023-02-02T10:16:38;101534.34;;;17.44;
46015;BME280;36844;51.898;-0.874;2023-02-02T10:19:05;101534.34;;;17.44;
46015;BME280;36844;51.898;-0.874;2023-02-02T10:23:59;101542.84;;;17.43;
46015;BME280;36844;51.898;-0.874;2023-02-02T10:29:16;101541.59;;;17.40;
46015;BME280;36844;51.898;-0.874;2023-02-02T10:44:45;101539.59;;;17.34;
46015;BME280;36844;51.898;-0.874;2023-02-02T10:47:12;101538.81;;;17.33;
46015;BME280;36844;51.898;-0.874;2023-02-02T10:49:40;101549.59;;;17.33;
46015;BME280;36844;51.898;-0.874;2023-02-02T10:54:46;101553.44;;;17.32;
46015;BME280;36844;51.898;-0.874;2023-02-02T10:57:13;101554.59;;;17.31;
46015;BME280;36844;51.898;-0.874;2023-02-02T10:59:42;101552.69;;;17.32;
46015;BME280;36844;51.898;-0.874;2023-02-02T11:02:10;101543.03;;;17.31;
46015;BME280;36844;51.898;-0.874;2023-02-02T11:04:35;101549.22;;;17.31;
46015;BME280;36844;51.898;-0.874;2023-02-02T11:07:19;101547.63;;;17.30;
46015;BME280;36844;51.898;-0.874;2023-02-02T11:09:44;101546.50;;;17.31;
46015;BME280;36844;51.898;-0.874;2023-02-02T11:12:30;101535.34;;;17.33;
46015;BME280;36844;51.898;-0.874;2023-02-02T11:15:05;101535.78;;;17.35;
46015;BME280;36844;51.898;-0.874;2023-02-02T11:17:32;101523.91;;;17.36;
46015;BME280;36844;51.898;-0.874;2023-02-02T11:19:57;101525.06;;;17.38;
46015;BME280;36844;51.898;-0.874;2023-02-02T11:22:33;101517.38;;;17.40;
46015;BME280;36844;51.898;-0.874;2023-02-02T11:25:00;101507.03;;;17.42;
46015;BME280;36844;51.898;-0.874;2023-02-02T11:27:27;101510.56;;;17.46;
46015;BME280;36844;51.898;-0.874;2023-02-02T11:29:56;101514.09;;;17.50;
46015;BME280;36844;51.898;-0.874;2023-02-02T11:37:25;101503.78;;;17.59;
46015;BME280;36844;51.898;-0.874;2023-02-02T11:39:51;101491.13;;;17.63;
46015;BME280;36844;51.898;-0.874;2023-02-02T11:42:19;101491.94;;;17.67;
46015;BME280;36844;51.898;-0.874;2023-02-02T11:44:48;101495.84;;;17.70;
46015;BME280;36844;51.898;-0.874;2023-02-02T11:47:19;101504.75;;;17.74;
46015;BME280;36844;51.898;-0.874;2023-02-02T11:49:45;101494.78;;;17.78;
46015;BME280;36844;51.898;-0.874;2023-02-02T11:52:15;101498.69;;;17.81;
46015;BME280;36844;51.898;-0.874;2023-02-02T11:54:45;101496.03;;;17.84;
46015;BME280;36844;51.898;-0.874;2023-02-02T11:57:14;101497.97;;;17.87;
46015;BME280;36844;51.898;-0.874;2023-02-02T11:59:41;101492.22;;;17.89;
46015;BME280;36844;51.898;-0.874;2023-02-02T12:04:44;101479.56;;;17.93;
46015;BME280;36844;51.898;-0.874;2023-02-02T12:07:26;101486.47;;;17.94;
46015;BME280;36844;51.898;-0.874;2023-02-02T12:09:52;101481.50;;;17.96;
46015;BME280;36844;51.898;-0.874;2023-02-02T12:12:22;101480.38;;;17.97;
46015;BME280;36844;51.898;-0.874;2023-02-02T12:25:32;101473.09;;;18.01;
46015;BME280;36844;51.898;-0.874;2023-02-02T12:35:42;101474.63;;;18.02;
46015;BME280;36844;51.898;-0.874;2023-02-02T12:38:30;101486.97;;;18.03;
46015;BME280;36844;51.898;-0.874;2023-02-02T12:43:41;101466.97;;;18.04;
46015;BME280;36844;51.898;-0.874;2023-02-02T12:56:37;101457.00;;;18.08;
46015;BME280;36844;51.898;-0.874;2023-02-02T13:01:43;101450.84;;;18.11;
46015;BME280;36844;51.898;-0.874;2023-02-02T13:04:15;101452.78;;;18.14;
46015;BME280;36844;51.898;-0.874;2023-02-02T13:12:13;101447.44;;;18.21;
46015;BME280;36844;51.898;-0.874;2023-02-02T13:14:44;101446.75;;;18.24;
46015;BME280;36844;51.898;-0.874;2023-02-02T13:17:12;101447.13;;;18.26;
46015;BME280;36844;51.898;-0.874;2023-02-02T13:19:41;101437.91;;;18.27;
46015;BME280;36844;51.898;-0.874;2023-02-02T13:22:16;101448.72;;;18.30;
46015;BME280;36844;51.898;-0.874;2023-02-02T13:24:42;101451.81;;;18.32;
46015;BME280;36844;51.898;-0.874;2023-02-02T13:27:09;101446.84;;;18.34;
46015;BME280;36844;51.898;-0.874;2023-02-02T13:29:38;101444.94;;;18.35;
46015;BME280;36844;51.898;-0.874;2023-02-02T13:32:05;101444.53;;;18.36;
46015;BME280;36844;51.898;-0.874;2023-02-02T13:34:40;101438.78;;;18.38;
46015;BME280;36844;51.898;-0.874;2023-02-02T13:39:36;101435.31;;;18.41;
46015;BME280;36844;51.898;-0.874;2023-02-02T13:42:04;101428.78;;;18.42;
46015;BME280;36844;51.898;-0.874;2023-02-02T13:44:40;101432.63;;;18.41;
46015;BME280;36844;51.898;-0.874;2023-02-02T13:47:17;101442.66;;;18.44;
46015;BME280;36844;51.898;-0.874;2023-02-02T13:49:46;101442.66;;;18.44;
46015;BME280;36844;51.898;-0.874;2023-02-02T13:52:30;101441.91;;;18.43;
46015;BME280;36844;51.898;-0.874;2023-02-02T13:58:13;101452.69;;;18.43;
46015;BME280;36844;51.898;-0.874;2023-02-02T14:00:41;101451.91;;;18.43;
46015;BME280;36844;51.898;-0.874;2023-02-02T14:03:21;101451.13;;;18.42;
46015;BME280;36844;51.898;-0.874;2023-02-02T14:06:09;101448.81;;;18.41;
46015;BME280;36844;51.898;-0.874;2023-02-02T14:08:35;101444.53;;;18.40;
46015;BME280;36844;51.898;-0.874;2023-02-02T14:11:01;101441.84;;;18.40;
46015;BME280;36844;51.898;-0.874;2023-02-02T14:26:45;101434.88;;;18.35;
46015;BME280;36844;51.898;-0.874;2023-02-02T14:34:47;101443.34;;;18.30;
46015;BME280;36844;51.898;-0.874;2023-02-02T14:39:59;101451.78;;;18.29;
46015;BME280;36844;51.898;-0.874;2023-02-02T14:45:22;101440.59;;;18.27;
46015;BME280;36844;51.898;-0.874;2023-02-02T14:48:31;101439.03;;;18.26;
46015;BME280;36844;51.898;-0.874;2023-02-02T14:55:32;101435.97;;;18.24;
46015;BME280;36844;51.898;-0.874;2023-02-02T14:57:59;101440.94;;;18.22;
46015;BME280;36844;51.898;-0.874;2023-02-02T15:00:27;101438.22;;;18.22;
46015;BME280;36844;51.898;-0.874;2023-02-02T15:02:54;101442.47;;;18.19;
46015;BME280;36844;51.898;-0.874;2023-02-02T15:10:58;101441.28;;;18.17;
46015;BME280;36844;51.898;-0.874;2023-02-02T15:13:25;101440.09;;;18.14;
46015;BME280;36844;51.898;-0.874;2023-02-02T15:15:54;101439.31;;;18.14;
46015;BME280;36844;51.898;-0.874;2023-02-02T15:18:27;101452.03;;;18.13;
46015;BME280;36844;51.898;-0.874;2023-02-02T15:20:55;101452.41;;;18.12;
46015;BME280;36844;51.898;-0.874;2023-02-02T15:23:32;101446.22;;;18.11;
46015;BME280;36844;51.898;-0.874;2023-02-02T15:26:59;101450.47;;;18.09;
46015;BME280;36844;51.898;-0.874;2023-02-02T15:29:16;101437.72;;;18.06;
46015;BME280;36844;51.898;-0.874;2023-02-02T15:34:15;101443.47;;;18.04;
46015;BME280;36844;51.898;-0.874;2023-02-02T15:36:42;101445.38;;;18.04;
46015;BME280;36844;51.898;-0.874;2023-02-02T15:41:53;101445.34;;;18.00;
46015;BME280;36844;51.898;-0.874;2023-02-02T15:44:38;101459.22;;;17.99;
46015;BME280;36844;51.898;-0.874;2023-02-02T15:47:05;101451.50;;;17.97;
46015;BME280;36844;51.898;-0.874;2023-02-02T15:49:34;101450.72;;;17.97;
46015;BME280;36844;51.898;-0.874;2023-02-02T15:52:00;101451.84;;;17.96;
46015;BME280;36844;51.898;-0.874;2023-02-02T15:54:30;101453.78;;;17.95;
46015;BME280;36844;51.898;-0.874;2023-02-02T15:56:57;101462.22;;;17.94;